Time;durP1;ratioP1;P1;durP2;ratioP2;P2;SDS_P1;SDS_P2;PMS_P1;PMS_P2;Temp;Humidity;BMP_temperature;BMP_pressure;BME280_temperature;BME280_humidity;BME280_pressure;Samples;Min_cycle;Max_cycle;Signal;HPM_P1;HPM_P2
2023/05/25 00:00:24;;;;;;;12.95;7.00;;;;;;;18.74;58.73;95168.22;5033288;28;20033;-77
2023/05/25 00:02:53;;;;;;;13.77;8.30;;;;;;;18.78;58.32;95161.84;5034468;28;20810;-77
2023/05/25 00:05:19;;;;;;;13.95;6.68;;;;;;;18.87;58.67;95189.47;5033047;28;20041;-77
2023/05/25 00:07:44;;;;;;;14.57;7.13;;;;;;;18.99;58.62;95202.22;5034214;28;20072;-77
2023/05/25 00:10:10;;;;;;;15.38;7.60;;;;;;;18.86;58.99;95193.25;5016182;28;20033;-77
2023/05/25 00:12:36;;;;;;;16.00;8.68;;;;;;;18.72;58.97;95181.97;5034039;28;20056;-77
2023/05/25 00:15:02;;;;;;;13.20;9.40;;;;;;;18.69;59.30;95193.34;5034401;28;20118;-77
2023/05/25 00:17:30;;;;;;;18.70;8.63;;;;;;;18.67;58.91;95192.13;5032854;28;20068;-77
2023/05/25 00:19:56;;;;;;;12.32;7.55;;;;;;;18.61;58.98;95172.72;5033899;28;20080;-77
2023/05/25 00:22:22;;;;;;;14.60;8.32;;;;;;;18.81;59.26;95214.16;5032015;28;20796;-77
2023/05/25 00:24:47;;;;;;;14.70;8.25;;;;;;;18.56;58.98;95180.94;5032581;28;20026;-77
2023/05/25 00:27:13;;;;;;;16.80;8.43;;;;;;;18.22;59.45;95130.06;5032720;28;20121;-77
2023/05/25 00:29:38;;;;;;;13.25;8.50;;;;;;;18.65;59.53;95208.53;5034385;28;20041;-77
2023/05/25 00:32:05;;;;;;;14.05;8.13;;;;;;;18.60;59.78;95207.94;5032637;28;20587;-77
2023/05/25 00:34:31;;;;;;;16.73;7.82;;;;;;;18.24;60.00;95170.75;5032131;28;20120;-77
2023/05/25 00:36:56;;;;;;;14.88;8.30;;;;;;;18.29;60.01;95170.59;5033469;28;20033;-77
2023/05/25 00:39:21;;;;;;;15.52;8.32;;;;;;;18.35;60.35;95191.59;5033307;28;20458;-77
2023/05/25 00:41:48;;;;;;;11.38;7.95;;;;;;;18.38;60.60;95201.69;5048610;28;20040;-77
2023/05/25 00:44:15;;;;;;;17.65;8.80;;;;;;;18.34;60.76;95205.31;5032074;28;20038;-77
2023/05/25 00:46:49;;;;;;;15.90;7.70;;;;;;;18.15;60.81;95194.19;5032490;28;20029;-77
2023/05/25 00:49:17;;;;;;;13.20;7.68;;;;;;;17.96;61.15;95168.50;5031836;28;20033;-77
2023/05/25 00:51:45;;;;;;;15.13;7.50;;;;;;;17.64;61.33;95148.38;5031827;28;20085;-77
2023/05/25 00:54:13;;;;;;;12.98;7.78;;;;;;;17.86;61.89;95171.50;5033208;28;20037;-78
2023/05/25 00:56:39;;;;;;;13.38;7.47;;;;;;;18.10;61.87;95219.28;5031798;28;20124;-77
2023/05/25 00:59:06;;;;;;;14.05;7.50;;;;;;;17.94;61.61;95196.75;5032726;28;20025;-77
2023/05/25 01:01:38;;;;;;;14.57;7.78;;;;;;;17.94;61.87;95208.25;5032817;28;20033;-77
2023/05/25 01:04:08;;;;;;;13.88;7.50;;;;;;;17.98;62.01;95229.91;5033056;28;20052;-77
2023/05/25 01:06:35;;;;;;;12.68;8.02;;;;;;;17.95;62.11;95236.69;5031148;28;20033;-77
2023/05/25 01:09:03;;;;;;;14.07;8.82;;;;;;;17.92;62.04;95234.66;5032794;28;20061;-77
2023/05/25 01:11:35;;;;;;;15.07;7.03;;;;;;;17.66;62.11;95205.16;5033013;28;20098;-77
2023/05/25 01:14:01;;;;;;;13.93;7.72;;;;;;;17.83;62.36;95231.19;5032756;28;20041;-77
2023/05/25 01:16:28;;;;;;;16.85;9.07;;;;;;;17.82;62.51;95228.81;5031351;28;20029;-77
2023/05/25 01:18:54;;;;;;;14.05;8.50;;;;;;;17.46;62.79;95184.34;5033490;28;20480;-77
2023/05/25 01:21:48;;;;;;;12.80;8.30;;;;;;;17.40;63.06;95174.84;5032917;28;20171;-77
2023/05/25 01:24:26;;;;;;;11.30;7.82;;;;;;;17.20;63.02;95143.34;5032521;28;20029;-77
2023/05/25 01:27:06;;;;;;;14.27;8.82;;;;;;;17.31;63.42;95177.56;5031091;28;20495;-77
2023/05/25 01:29:33;;;;;;;15.45;8.63;;;;;;;17.58;63.33;95216.66;5031100;28;20049;-77
2023/05/25 01:32:01;;;;;;;15.30;8.95;;;;;;;17.29;63.06;95155.63;5032488;28;20128;-77
2023/05/25 01:34:28;;;;;;;12.27;7.65;;;;;;;17.54;63.33;95202.31;5031019;28;20436;-77
2023/05/25 01:36:54;;;;;;;14.02;7.57;;;;;;;17.32;63.25;95159.56;5032042;28;20037;-77
2023/05/25 01:39:21;;;;;;;12.35;8.02;;;;;;;17.32;63.13;95175.63;5032240;28;20052;-77
2023/05/25 01:41:47;;;;;;;10.00;7.85;;;;;;;17.56;63.42;95210.81;5031008;28;20140;-77
2023/05/25 01:44:13;;;;;;;13.43;7.70;;;;;;;17.41;63.56;95189.84;5014588;28;20068;-77
2023/05/25 01:46:39;;;;;;;18.38;8.80;;;;;;;17.48;63.51;95200.88;5034034;28;20033;-77
2023/05/25 01:49:17;;;;;;;20.00;8.32;;;;;;;17.32;63.67;95187.16;5047587;28;20120;-78
2023/05/25 01:51:47;;;;;;;11.82;8.57;;;;;;;17.40;63.73;95196.28;5030358;28;20037;-78
2023/05/25 01:54:18;;;;;;;15.18;8.68;;;;;;;17.31;63.72;95188.28;5031070;28;20044;-77
2023/05/25 01:56:46;;;;;;;14.63;8.60;;;;;;;17.15;63.77;95159.56;5030848;28;20167;-77
2023/05/25 01:59:15;;;;;;;17.50;8.55;;;;;;;17.03;63.99;95157.50;5031377;28;20049;-77
2023/05/25 02:01:42;;;;;;;14.13;8.38;;;;;;;17.17;63.90;95176.91;5031443;28;20041;-77
2023/05/25 02:04:08;;;;;;;18.70;9.02;;;;;;;16.97;64.19;95153.41;5031128;28;20041;-77
2023/05/25 02:06:37;;;;;;;13.75;8.82;;;;;;;17.05;63.93;95174.06;5032867;28;20036;-77
2023/05/25 02:09:03;;;;;;;14.93;8.27;;;;;;;17.19;64.25;95206.06;5031075;28;20041;-77
2023/05/25 02:11:28;;;;;;;19.25;9.23;;;;;;;17.27;64.20;95219.47;5031434;28;20033;-77
2023/05/25 02:13:54;;;;;;;18.40;9.00;;;;;;;17.27;64.15;95216.81;5030541;28;20041;-77
2023/05/25 02:16:19;;;;;;;17.95;9.43;;;;;;;17.24;64.32;95213.97;5032674;28;20496;-77
2023/05/25 02:18:45;;;;;;;16.13;9.68;;;;;;;16.86;64.35;95155.59;5032270;28;20082;-77
2023/05/25 02:21:10;;;;;;;18.98;9.38;;;;;;;17.35;64.39;95217.91;5031038;28;20041;-77
2023/05/25 02:23:36;;;;;;;15.98;9.02;;;;;;;17.36;64.13;95230.22;5031513;28;20494;-77
2023/05/25 02:26:01;;;;;;;16.02;9.50;;;;;;;17.33;64.34;95226.25;5031037;28;20113;-77
2023/05/25 02:28:27;;;;;;;15.45;9.02;;;;;;;16.08;64.27;95041.44;5030598;28;20055;-77
2023/05/25 02:30:52;;;;;;;20.88;9.25;;;;;;;16.94;64.64;95194.22;5032083;28;20068;-77
2023/05/25 02:33:17;;;;;;;16.05;8.82;;;;;;;17.13;64.78;95224.19;5030853;28;20494;-77
2023/05/25 02:35:43;;;;;;;20.70;8.95;;;;;;;16.89;64.79;95194.38;5031320;28;20034;-77
2023/05/25 02:38:08;;;;;;;14.77;9.57;;;;;;;17.09;65.22;95239.31;5031092;28;20219;-77
2023/05/25 02:40:34;;;;;;;20.40;9.13;;;;;;;17.01;64.83;95226.72;5031838;28;20022;-77
2023/05/25 02:42:59;;;;;;;19.13;9.25;;;;;;;16.95;64.99;95236.75;5030819;28;20037;-78
2023/05/25 02:45:25;;;;;;;16.20;9.10;;;;;;;16.83;64.94;95214.38;5032756;28;20049;-77
2023/05/25 02:47:50;;;;;;;14.20;9.07;;;;;;;16.81;65.30;95222.72;5032259;28;20037;-77
2023/05/25 02:50:16;;;;;;;14.95;9.15;;;;;;;16.96;65.26;95249.06;5032453;28;20090;-77
2023/05/25 02:52:41;;;;;;;12.77;8.70;;;;;;;16.64;65.26;95206.59;5030846;28;20037;-77
2023/05/25 02:55:09;;;;;;;16.38;9.20;;;;;;;16.87;65.68;95250.13;5032250;28;20044;-77
2023/05/25 02:57:36;;;;;;;16.58;8.88;;;;;;;16.91;65.54;95265.28;5031963;28;20025;-77
2023/05/25 03:00:02;;;;;;;14.80;9.13;;;;;;;16.79;66.03;95267.75;5030748;28;20037;-77
2023/05/25 03:02:29;;;;;;;23.60;10.27;;;;;;;16.35;66.09;95192.91;5047206;28;20025;-77
2023/05/25 03:04:55;;;;;;;21.52;11.52;;;;;;;16.37;65.90;95191.50;5030394;28;20048;-77
2023/05/25 03:07:24;;;;;;;20.67;11.05;;;;;;;16.77;65.84;95272.66;5032041;28;20029;-77
2023/05/25 03:09:50;;;;;;;18.48;12.60;;;;;;;16.23;65.82;95179.34;5030507;28;20025;-77
2023/05/25 03:12:17;;;;;;;24.08;13.43;;;;;;;16.64;65.94;95245.94;5035663;28;20456;-77
2023/05/25 03:14:42;;;;;;;21.55;12.27;;;;;;;16.51;65.93;95223.53;5034729;28;20029;-77
2023/05/25 03:17:08;;;;;;;23.30;12.18;;;;;;;16.58;66.35;95247.97;5034467;28;20033;-77
2023/05/25 03:19:33;;;;;;;20.52;10.70;;;;;;;16.09;66.17;95174.88;5034374;28;20045;-77
2023/05/25 03:21:59;;;;;;;22.50;11.52;;;;;;;16.73;66.10;95266.31;5033908;28;20037;-77
2023/05/25 03:24:25;;;;;;;18.60;11.00;;;;;;;16.38;66.31;95209.16;5033793;28;20033;-77
2023/05/25 03:26:51;;;;;;;32.88;12.20;;;;;;;16.04;66.38;95172.31;5033717;28;20415;-77
2023/05/25 03:29:16;;;;;;;25.63;11.20;;;;;;;16.28;66.07;95204.06;5034045;28;20041;-77
2023/05/25 03:31:42;;;;;;;19.58;12.05;;;;;;;16.61;66.49;95259.97;5035528;28;20561;-77
2023/05/25 03:34:07;;;;;;;26.58;11.98;;;;;;;16.34;66.30;95218.88;5034140;28;20108;-77
2023/05/25 03:36:33;;;;;;;22.55;13.20;;;;;;;16.75;66.16;95274.84;5035439;28;20033;-77
2023/05/25 03:38:58;;;;;;;24.08;14.07;;;;;;;16.45;66.40;95222.09;5033597;28;20021;-77
2023/05/25 03:41:24;;;;;;;26.52;15.20;;;;;;;16.10;66.99;95183.66;5033153;28;20033;-77
2023/05/25 03:43:49;;;;;;;21.83;15.10;;;;;;;16.66;66.57;95257.16;5035419;28;20029;-77
2023/05/25 03:46:15;;;;;;;27.52;15.45;;;;;;;16.75;66.99;95271.38;5033298;28;20120;-77
2023/05/25 03:48:40;;;;;;;28.27;16.13;;;;;;;16.71;66.78;95265.84;5034955;28;20467;-77
2023/05/25 03:51:06;;;;;;;33.78;16.73;;;;;;;16.79;66.82;95275.78;5033916;28;20037;-77
2023/05/25 03:53:31;;;;;;;34.08;17.20;;;;;;;16.66;66.99;95246.44;5034757;28;20126;-77
2023/05/25 03:55:57;;;;;;;29.23;17.90;;;;;;;16.90;66.50;95279.00;5035054;28;20093;-77
2023/05/25 03:58:23;;;;;;;30.92;17.45;;;;;;;16.96;66.48;95281.22;5032773;28;20041;-77
2023/05/25 04:00:49;;;;;;;37.90;15.82;;;;;;;15.98;66.41;95124.63;5034681;28;20044;-77
2023/05/25 04:03:15;;;;;;;30.42;19.42;;;;;;;17.06;66.39;95285.50;5034421;28;20029;-77
2023/05/25 04:05:40;;;;;;;30.48;16.60;;;;;;;16.90;66.38;95258.34;5033404;28;20041;-77
2023/05/25 04:08:08;;;;;;;37.58;16.17;;;;;;;16.89;66.51;95255.97;5033879;28;20045;-77
2023/05/25 04:10:34;;;;;;;31.15;16.13;;;;;;;17.08;66.29;95271.78;5033529;28;20519;-77
2023/05/25 04:12:59;;;;;;;30.27;14.90;;;;;;;17.07;65.77;95272.91;5033286;28;20041;-78
2023/05/25 04:15:25;;;;;;;24.70;14.45;;;;;;;16.87;65.52;95236.75;5032562;28;20037;-78
2023/05/25 04:17:50;;;;;;;26.00;14.85;;;;;;;17.29;65.91;95299.59;5034254;28;20105;-77
2023/05/25 04:20:16;;;;;;;31.55;16.63;;;;;;;16.80;65.68;95213.09;5017161;28;20033;-77
2023/05/25 04:22:43;;;;;;;27.35;14.32;;;;;;;17.03;65.12;95248.59;5034990;28;20029;-77
2023/05/25 04:25:09;;;;;;;28.33;14.50;;;;;;;17.60;64.76;95302.94;5033754;28;20087;-77
2023/05/25 04:27:35;;;;;;;28.77;15.90;;;;;;;17.71;63.66;95300.75;5034389;28;20065;-77
2023/05/25 04:30:01;;;;;;;38.15;16.65;;;;;;;17.76;63.02;95291.78;5033572;28;20406;-77
2023/05/25 04:32:31;;;;;;;27.70;15.35;;;;;;;17.90;62.53;95308.50;5034732;28;20045;-77
2023/05/25 04:34:57;;;;;;;31.35;16.60;;;;;;;17.83;62.12;95289.41;5033657;28;20064;-77
2023/05/25 04:37:26;;;;;;;25.50;15.82;;;;;;;18.03;60.83;95326.31;5034458;28;20103;-77
2023/05/25 04:39:52;;;;;;;27.70;15.73;;;;;;;17.94;59.97;95287.97;5034124;28;20470;-78
2023/05/25 04:42:22;;;;;;;26.88;14.25;;;;;;;18.03;59.32;95305.66;5033415;28;20048;-77
2023/05/25 04:44:48;;;;;;;20.25;13.27;;;;;;;18.11;58.88;95296.00;5034792;28;20491;-77
2023/05/25 04:47:15;;;;;;;23.10;13.77;;;;;;;18.25;58.76;95307.34;5041340;28;20029;-77
2023/05/25 04:49:40;;;;;;;23.55;12.48;;;;;;;18.08;58.43;95291.25;5037907;28;20042;-77
2023/05/25 04:52:06;;;;;;;20.10;12.80;;;;;;;18.44;57.76;95315.06;5049414;28;20377;-77
2023/05/25 04:54:31;;;;;;;22.17;12.50;;;;;;;18.48;57.66;95316.00;5047129;28;20124;-78
2023/05/25 04:56:57;;;;;;;27.38;13.20;;;;;;;18.51;57.69;95312.69;5030793;28;20041;-78
2023/05/25 04:59:22;;;;;;;31.88;12.77;;;;;;;18.33;57.53;95270.84;5031156;28;20401;-78
2023/05/25 05:01:47;;;;;;;32.55;13.27;;;;;;;18.54;57.81;95306.66;5031471;28;20467;-77
2023/05/25 05:04:15;;;;;;;30.13;13.90;;;;;;;18.49;58.13;95304.16;5029956;28;20040;-78
2023/05/25 05:06:40;;;;;;;21.73;13.45;;;;;;;18.37;58.62;95304.81;5049039;28;20037;-77
2023/05/25 05:09:06;;;;;;;21.65;12.07;;;;;;;18.38;58.58;95292.19;5035129;28;20036;-77
2023/05/25 05:11:31;;;;;;;23.95;14.95;;;;;;;18.22;58.81;95291.13;5048584;28;20124;-77
2023/05/25 05:13:57;;;;;;;29.42;14.38;;;;;;;18.32;58.71;95293.44;5039327;28;20041;-78
2023/05/25 05:16:23;;;;;;;30.63;14.57;;;;;;;18.29;59.83;95312.88;5051589;28;20059;-77
2023/05/25 05:18:49;;;;;;;30.55;13.77;;;;;;;18.24;59.78;95292.34;5044256;28;20033;-77
2023/05/25 05:21:15;;;;;;;36.90;14.35;;;;;;;17.89;59.45;95232.59;5051120;28;20024;-78
2023/05/25 05:23:43;;;;;;;32.47;14.82;;;;;;;18.47;59.15;95314.41;5039769;28;20108;-77
2023/05/25 05:26:10;;;;;;;27.02;15.10;;;;;;;18.06;59.18;95246.00;5049082;28;20040;-78
2023/05/25 05:28:36;;;;;;;34.90;14.48;;;;;;;18.26;59.34;95283.97;5049922;28;20060;-77
2023/05/25 05:31:02;;;;;;;24.08;14.13;;;;;;;18.34;59.41;95318.88;5049838;28;20123;-78
2023/05/25 05:33:27;;;;;;;42.80;14.85;;;;;;;17.96;59.42;95248.19;5049312;28;20064;-78
2023/05/25 05:35:53;;;;;;;33.45;15.50;;;;;;;18.16;59.52;95281.66;5053340;28;20025;-78
2023/05/25 05:38:18;;;;;;;27.85;14.15;;;;;;;18.41;59.31;95305.75;5049524;28;20131;-77
2023/05/25 05:40:44;;;;;;;30.92;15.65;;;;;;;18.31;59.06;95286.53;5038370;28;20025;-78
2023/05/25 05:43:11;;;;;;;41.17;14.77;;;;;;;18.28;59.28;95273.72;5048401;28;20025;-79
2023/05/25 05:45:37;;;;;;;34.53;15.23;;;;;;;18.35;59.04;95301.66;5060698;28;20024;-79
2023/05/25 05:48:03;;;;;;;30.08;15.73;;;;;;;18.65;58.71;95332.09;5059171;28;20037;-79
2023/05/25 05:50:29;;;;;;;24.67;14.30;;;;;;;18.76;58.52;95332.56;5033340;28;20061;-80
2023/05/25 05:52:55;;;;;;;27.42;14.60;;;;;;;18.79;58.69;95334.59;5043545;28;20103;-79
2023/05/25 05:55:22;;;;;;;29.33;14.93;;;;;;;18.49;59.35;95315.69;5055346;28;20067;-79
2023/05/25 05:57:47;;;;;;;28.73;15.07;;;;;;;18.79;58.70;95335.38;5054267;28;20182;-80
2023/05/25 06:00:14;;;;;;;36.85;14.82;;;;;;;18.44;59.40;95282.84;5054624;28;20480;-79
2023/05/25 06:02:40;;;;;;;33.03;16.25;;;;;;;18.54;58.83;95297.84;5056969;28;20369;-80
2023/05/25 06:05:06;;;;;;;28.10;14.30;;;;;;;18.68;58.76;95312.66;5057234;28;20055;-80
2023/05/25 06:07:34;;;;;;;24.48;13.48;;;;;;;18.63;59.40;95323.56;5054230;28;20090;-79
2023/05/25 06:09:59;;;;;;;35.25;14.65;;;;;;;18.66;58.88;95295.28;5056369;28;20055;-79
2023/05/25 06:12:25;;;;;;;26.75;14.45;;;;;;;18.68;59.01;95298.44;5054899;28;20033;-79
2023/05/25 06:14:52;;;;;;;23.17;14.02;;;;;;;18.91;59.22;95337.41;5054924;28;20033;-79
2023/05/25 06:17:17;;;;;;;42.10;14.77;;;;;;;18.61;59.02;95279.34;5053609;28;20124;-79
2023/05/25 06:19:44;;;;;;;27.40;14.38;;;;;;;18.62;58.75;95292.44;5055032;28;20032;-79
2023/05/25 06:22:09;;;;;;;36.50;14.00;;;;;;;18.58;58.77;95261.19;5050929;28;20029;-79
2023/05/25 06:24:35;;;;;;;28.38;12.45;;;;;;;19.10;58.80;95345.84;5053115;28;20084;-79
2023/05/25 06:27:02;;;;;;;32.33;12.93;;;;;;;18.40;58.35;95201.34;5054284;28;20025;-79
2023/05/25 06:29:27;;;;;;;25.77;13.30;;;;;;;19.01;58.30;95285.19;5033466;28;20052;-80
2023/05/25 06:31:53;;;;;;;32.35;12.38;;;;;;;19.31;58.35;95332.47;5055371;28;20064;-80
2023/05/25 06:34:18;;;;;;;28.40;12.98;;;;;;;19.17;57.74;95302.34;5052924;28;20048;-80
2023/05/25 06:36:45;;;;;;;34.83;13.10;;;;;;;19.31;58.18;95339.75;5055621;28;20044;-79
2023/05/25 06:39:11;;;;;;;38.15;12.77;;;;;;;19.17;57.77;95296.97;5051914;28;20037;-80
2023/05/25 06:41:38;;;;;;;23.80;12.90;;;;;;;19.33;57.93;95326.75;5054029;28;20372;-79
2023/05/25 06:44:03;;;;;;;28.25;13.65;;;;;;;19.33;57.91;95327.56;5052275;28;20029;-79
2023/05/25 06:46:28;;;;;;;20.75;13.05;;;;;;;19.21;58.10;95301.38;5045236;28;20026;-79
2023/05/25 06:48:54;;;;;;;24.80;12.52;;;;;;;19.45;57.62;95330.34;5051644;28;20036;-80
2023/05/25 06:51:20;;;;;;;27.10;11.95;;;;;;;19.67;57.59;95344.66;5060103;28;20037;-80
2023/05/25 06:53:47;;;;;;;19.92;11.75;;;;;;;19.08;58.21;95290.84;5059699;28;20025;-79
2023/05/25 06:56:12;;;;;;;23.45;13.82;;;;;;;19.37;58.44;95333.09;5058900;28;20112;-80
2023/05/25 06:58:39;;;;;;;17.15;11.60;;;;;;;19.40;58.16;95313.59;5038929;28;20124;-79
2023/05/25 07:01:04;;;;;;;20.45;12.40;;;;;;;19.56;58.51;95346.91;5068299;28;20484;-79
2023/05/25 07:03:31;;;;;;;23.23;11.38;;;;;;;19.79;57.48;95340.13;5058353;28;20198;-79
2023/05/25 07:05:57;;;;;;;27.13;10.88;;;;;;;19.85;57.47;95335.31;5046221;28;20115;-79
2023/05/25 07:08:22;;;;;;;19.98;10.15;;;;;;;19.75;57.55;95319.59;5053085;28;20461;-78
2023/05/25 07:10:47;;;;;;;22.13;11.73;;;;;;;19.56;58.18;95315.44;5058229;28;20122;-78
2023/05/25 07:13:14;;;;;;;19.33;10.02;;;;;;;19.81;57.70;95335.19;5057123;28;20076;-79
2023/05/25 07:15:40;;;;;;;19.88;10.32;;;;;;;19.73;57.46;95284.94;5057857;28;20044;-80
2023/05/25 07:18:05;;;;;;;16.45;8.20;;;;;;;19.74;58.16;95297.25;5055794;28;20044;-80
2023/05/25 07:20:32;;;;;;;14.13;8.30;;;;;;;19.62;57.84;95286.41;5059311;28;20021;-80
2023/05/25 07:22:58;;;;;;;16.35;9.10;;;;;;;19.87;57.99;95295.41;5092033;28;20025;-79
2023/05/25 07:25:23;;;;;;;17.33;8.60;;;;;;;19.96;58.19;95337.31;5083556;28;20092;-80
2023/05/25 07:27:53;;;;;;;13.93;7.72;;;;;;;19.86;57.90;95312.69;5060095;28;20049;-80
2023/05/25 07:30:19;;;;;;;11.10;7.30;;;;;;;19.96;58.20;95328.44;5049869;28;20038;-80
2023/05/25 07:32:45;;;;;;;18.65;8.82;;;;;;;19.83;58.79;95295.31;5054399;28;20033;-82
2023/05/25 07:35:10;;;;;;;16.70;8.52;;;;;;;20.15;58.76;95333.34;5071748;28;20037;-81
2023/05/25 07:37:36;;;;;;;17.30;8.50;;;;;;;20.06;58.96;95335.34;5084032;28;20045;-80
2023/05/25 07:40:02;;;;;;;16.52;7.82;;;;;;;20.07;60.23;95334.97;5061830;28;20107;-80
2023/05/25 07:42:32;;;;;;;14.52;7.95;;;;;;;19.96;59.79;95314.97;5095890;28;20029;-80
2023/05/25 07:44:58;;;;;;;12.50;6.88;;;;;;;20.02;58.81;95311.75;5077400;28;20025;-80
2023/05/25 07:47:24;;;;;;;18.52;6.72;;;;;;;20.24;58.39;95336.75;5054799;28;20044;-79
2023/05/25 07:49:49;;;;;;;9.18;6.55;;;;;;;20.35;57.92;95316.41;5053244;28;20034;-81
2023/05/25 07:52:15;;;;;;;11.45;7.32;;;;;;;20.12;58.74;95280.16;5055634;28;20029;-81
2023/05/25 07:54:41;;;;;;;10.20;6.82;;;;;;;19.71;58.84;95243.31;5062342;28;20127;-80
2023/05/25 07:57:06;;;;;;;9.57;4.78;;;;;;;20.10;57.32;95309.31;5069113;28;20110;-80
2023/05/25 07:59:32;;;;;;;11.57;5.10;;;;;;;19.87;55.60;95312.34;5065601;28;20035;-80
2023/05/25 08:01:57;;;;;;;10.13;4.47;;;;;;;19.80;55.10;95314.78;5060806;28;20064;-79
2023/05/25 08:04:23;;;;;;;8.55;4.95;;;;;;;19.92;55.21;95335.56;5061458;28;20041;-80
2023/05/25 08:06:48;;;;;;;19.10;8.15;;;;;;;20.03;57.60;95339.47;5057352;28;20045;-80
2023/05/25 08:09:13;;;;;;;21.63;10.48;;;;;;;20.22;58.49;95347.06;5042056;28;20052;-80
2023/05/25 08:11:39;;;;;;;15.73;10.30;;;;;;;20.60;58.36;95376.53;5075348;28;20047;-80
2023/05/25 08:14:04;;;;;;;22.92;11.00;;;;;;;20.44;58.49;95348.66;5042948;28;20037;-80
2023/05/25 08:16:30;;;;;;;22.38;11.73;;;;;;;20.55;58.70;95392.91;5057546;28;20037;-80
2023/05/25 08:18:55;;;;;;;23.95;11.45;;;;;;;20.67;57.63;95399.13;5044521;28;20091;-80
2023/05/25 08:21:21;;;;;;;20.83;10.57;;;;;;;20.15;57.47;95330.66;5056863;28;20033;-80
2023/05/25 08:23:46;;;;;;;21.33;11.68;;;;;;;20.42;58.04;95395.56;5052293;28;20028;-79
2023/05/25 08:26:12;;;;;;;20.58;10.57;;;;;;;19.83;58.07;95322.22;5049518;28;20059;-80
2023/05/25 08:28:37;;;;;;;24.75;9.80;;;;;;;20.16;58.73;95415.69;5048259;28;20063;-79
2023/05/25 08:31:03;;;;;;;29.52;10.23;;;;;;;19.84;59.96;95382.97;5055095;28;20039;-79
2023/05/25 08:33:29;;;;;;;26.80;9.23;;;;;;;19.44;61.92;95336.84;5047790;28;20090;-79
2023/05/25 08:35:55;;;;;;;11.18;7.65;;;;;;;19.64;62.93;95416.81;5052492;28;20447;-80
2023/05/25 08:38:24;;;;;;;16.73;7.07;;;;;;;19.39;64.55;95411.50;5060459;28;20059;-79
2023/05/25 08:41:05;;;;;;;18.48;8.07;;;;;;;19.20;65.42;95418.09;5043352;28;20052;-79
2023/05/25 08:43:31;;;;;;;17.98;8.13;;;;;;;19.28;65.93;95408.41;5030994;28;20550;-80
2023/05/25 08:46:08;;;;;;;14.82;6.47;;;;;;;19.31;66.80;95423.09;5093322;28;20039;-79
2023/05/25 08:48:35;;;;;;;12.55;6.18;;;;;;;18.49;67.97;95333.69;5059658;28;20123;-79
2023/05/25 08:51:07;;;;;;;10.48;6.53;;;;;;;18.66;67.89;95351.69;5060518;28;20039;-79
2023/05/25 08:53:36;;;;;;;;;;;;;;;19.13;67.60;95417.00;5060773;28;20029;-80
2023/05/25 08:56:18;;;;;;;14.05;6.25;;;;;;;18.65;68.42;95353.59;5061076;28;19950;-80
2023/05/25 08:58:54;;;;;;;7.32;5.00;;;;;;;18.84;68.03;95412.34;5060136;28;20039;-79
2023/05/25 09:01:21;;;;;;;11.55;6.10;;;;;;;18.77;68.58;95415.50;5057905;28;20119;-79
2023/05/25 09:03:48;;;;;;;8.45;5.25;;;;;;;18.29;69.40;95372.75;5060158;28;20036;-79
2023/05/25 09:06:16;;;;;;;9.80;5.70;;;;;;;18.64;68.61;95416.47;5058264;28;20090;-80
2023/05/25 09:08:43;;;;;;;8.65;5.47;;;;;;;18.55;69.44;95412.97;5048812;28;20120;-80
2023/05/25 09:11:12;;;;;;;13.02;5.70;;;;;;;18.58;69.30;95433.09;5060000;28;20092;-80
2023/05/25 09:13:39;;;;;;;8.45;5.28;;;;;;;18.57;70.13;95437.66;5062146;28;20094;-80
2023/05/25 09:16:05;;;;;;;13.85;6.20;;;;;;;18.15;69.75;95374.81;5061357;28;20119;-80
2023/05/25 09:18:30;;;;;;;12.93;5.72;;;;;;;18.24;70.46;95409.69;5063504;28;20118;-80
2023/05/25 09:20:56;;;;;;;16.20;6.05;;;;;;;18.35;70.40;95430.53;5061290;28;20033;-79
2023/05/25 09:23:21;;;;;;;12.23;6.32;;;;;;;18.22;71.51;95393.13;5058272;28;20032;-80
2023/05/25 09:25:49;;;;;;;18.55;7.43;;;;;;;18.18;72.66;95406.38;5058766;28;20039;-79
2023/05/25 09:28:18;;;;;;;15.20;8.00;;;;;;;18.41;72.83;95440.00;5055209;28;20075;-79
2023/05/25 09:30:43;;;;;;;11.70;6.70;;;;;;;17.98;72.37;95374.78;5055121;28;20488;-79
2023/05/25 09:33:13;;;;;;;9.55;5.78;;;;;;;17.66;72.78;95384.06;5054225;28;20033;-79
2023/05/25 09:35:39;;;;;;;13.57;6.68;;;;;;;17.87;72.12;95403.03;5042886;28;20037;-79
2023/05/25 09:38:05;;;;;;;13.70;6.30;;;;;;;17.72;73.04;95431.88;5056124;28;20110;-79
2023/05/25 09:40:32;;;;;;;12.23;6.07;;;;;;;17.25;74.77;95433.41;5039020;28;20466;-79
2023/05/25 09:42:58;;;;;;;15.13;7.15;;;;;;;17.18;75.95;95379.47;5092727;28;20123;-79
2023/05/25 09:45:23;;;;;;;13.38;8.27;;;;;;;17.30;77.08;95411.84;5062751;28;20098;-79
2023/05/25 09:47:54;;;;;;;15.15;8.35;;;;;;;17.46;76.92;95395.34;5060926;28;20028;-79
2023/05/25 09:50:20;;;;;;;16.00;8.10;;;;;;;17.35;76.85;95425.09;5040989;28;20025;-79
2023/05/25 09:52:46;;;;;;;17.38;8.73;;;;;;;17.53;77.78;95430.53;5048086;28;20037;-79
2023/05/25 09:55:12;;;;;;;15.45;8.65;;;;;;;17.59;77.45;95431.97;5054109;28;20061;-79
2023/05/25 09:57:37;;;;;;;11.45;8.40;;;;;;;17.56;77.31;95392.34;5052109;28;20044;-79
2023/05/25 10:00:04;;;;;;;20.40;8.38;;;;;;;17.68;77.98;95401.44;5051226;28;20094;-79
2023/05/25 10:02:30;;;;;;;15.20;8.50;;;;;;;17.93;77.77;95388.34;5056697;28;20029;-79
2023/05/25 10:04:56;;;;;;;13.57;9.63;;;;;;;17.71;78.96;95330.25;5053229;28;20040;-79
2023/05/25 10:07:22;;;;;;;12.88;8.60;;;;;;;17.93;78.17;95338.16;5037416;28;20033;-79
2023/05/25 10:09:52;;;;;;;15.57;10.27;;;;;;;17.54;77.15;95274.72;5048582;28;20043;-80
2023/05/25 10:12:21;;;;;;;16.88;9.77;;;;;;;18.77;76.83;95415.50;5044458;28;20146;-80
2023/05/25 10:14:49;;;;;;;18.73;10.27;;;;;;;18.83;75.86;95386.59;5036170;28;20045;-80
2023/05/25 10:17:23;;;;;;;28.95;11.52;;;;;;;18.94;76.70;95392.38;5051579;28;20092;-80
2023/05/25 10:19:48;;;;;;;16.55;11.30;;;;;;;19.26;75.80;95399.88;5052337;28;20025;-79
2023/05/25 10:22:24;;;;;;;16.85;11.18;;;;;;;19.16;73.77;95390.25;5048481;28;20120;-80
2023/05/25 10:24:56;;;;;;;16.45;11.13;;;;;;;19.01;76.39;95315.53;5058482;28;20041;-81
2023/05/25 10:27:38;;;;;;;17.65;10.35;;;;;;;19.59;69.39;95392.00;5046699;28;20129;-79
2023/05/25 10:30:07;;;;;;;16.08;10.73;;;;;;;19.67;70.20;95385.00;5045861;28;20047;-80
2023/05/25 10:32:35;;;;;;;18.33;10.98;;;;;;;19.49;68.55;95365.47;5033653;28;20113;-80
2023/05/25 10:35:02;;;;;;;14.02;10.07;;;;;;;19.34;70.48;95347.97;5061937;28;20073;-80
2023/05/25 10:37:29;;;;;;;13.07;10.05;;;;;;;18.66;71.30;95320.25;5049141;28;20049;-80
2023/05/25 10:39:56;;;;;;;17.67;10.30;;;;;;;19.08;69.73;95321.19;5053326;28;20083;-80
2023/05/25 10:42:22;;;;;;;11.82;8.55;;;;;;;19.23;66.49;95349.44;5052086;28;20140;-80
2023/05/25 10:44:48;;;;;;;15.68;10.05;;;;;;;19.26;69.00;95338.81;5053617;28;20071;-80
2023/05/25 10:47:15;;;;;;;13.13;9.30;;;;;;;18.86;68.32;95279.25;5052259;28;20044;-80
2023/05/25 10:49:51;;;;;;;13.30;7.80;;;;;;;18.82;66.44;95321.31;5052318;28;20423;-80
2023/05/25 10:52:18;;;;;;;15.55;7.07;;;;;;;18.75;68.96;95291.47;5079787;28;20102;-80
2023/05/25 10:54:46;;;;;;;12.40;7.50;;;;;;;18.91;70.51;95258.69;5056320;28;20113;-81
2023/05/25 10:57:16;;;;;;;13.80;5.93;;;;;;;18.84;64.87;95302.19;5051506;28;20112;-80
2023/05/25 10:59:44;;;;;;;9.38;6.60;;;;;;;19.36;64.86;95336.88;5050518;28;20033;-80
2023/05/25 11:02:10;;;;;;;18.98;7.78;;;;;;;19.35;65.84;95298.44;5049271;28;20116;-81
2023/05/25 11:04:36;;;;;;;19.30;7.30;;;;;;;19.31;68.01;95310.94;5048981;28;20499;-81
2023/05/25 11:07:01;;;;;;;19.23;6.18;;;;;;;19.58;65.11;95342.00;5060084;28;20033;-80
2023/05/25 11:09:31;;;;;;;24.38;8.02;;;;;;;19.46;65.69;95296.94;5041760;28;20048;-81
2023/05/25 11:11:58;;;;;;;23.48;8.25;;;;;;;19.98;66.84;95336.97;5043032;28;20033;-81
2023/05/25 11:14:31;;;;;;;27.88;8.05;;;;;;;19.98;66.80;95340.47;5071609;28;20080;-81
2023/05/25 11:17:03;;;;;;;29.55;8.57;;;;;;;20.21;66.20;95337.44;5053364;28;20097;-80
2023/05/25 11:19:42;;;;;;;16.60;6.30;;;;;;;19.72;65.48;95277.19;5087454;28;20036;-81